sensor_id;sensor_type;location;lat;lon;timestamp;P1;durP1;ratioP1;P2;durP2;ratioP2
58842;SDS011;44614;54.356;10.100;2023-03-01T00:01:49;37.08;;;15.95;;
58842;SDS011;44614;54.356;10.100;2023-03-01T00:04:14;32.03;;;14.07;;
58842;SDS011;44614;54.356;10.100;2023-03-01T00:06:40;52.57;;;17.53;;
58842;SDS011;44614;54.356;10.100;2023-03-01T00:09:07;47.35;;;14.13;;
58842;SDS011;44614;54.356;10.100;2023-03-01T00:11:33;35.47;;;12.98;;
58842;SDS011;44614;54.356;10.100;2023-03-01T00:13:59;35.15;;;15.73;;
58842;SDS011;44614;54.356;10.100;2023-03-01T00:16:27;24.83;;;12.73;;
58842;SDS011;44614;54.356;10.100;2023-03-01T00:18:55;52.90;;;14.95;;
58842;SDS011;44614;54.356;10.100;2023-03-01T00:21:21;33.88;;;13.88;;
58842;SDS011;44614;54.356;10.100;2023-03-01T00:23:47;61.35;;;14.10;;
58842;SDS011;44614;54.356;10.100;2023-03-01T00:26:13;31.02;;;13.27;;
58842;SDS011;44614;54.356;10.100;2023-03-01T00:28:40;23.98;;;11.60;;
58842;SDS011;44614;54.356;10.100;2023-03-01T00:31:06;34.95;;;13.80;;
58842;SDS011;44614;54.356;10.100;2023-03-01T00:33:33;27.20;;;12.63;;
58842;SDS011;44614;54.356;10.100;2023-03-01T00:35:59;26.35;;;12.13;;
58842;SDS011;44614;54.356;10.100;2023-03-01T00:38:25;22.38;;;10.68;;
58842;SDS011;44614;54.356;10.100;2023-03-01T00:40:51;36.85;;;12.50;;
58842;SDS011;44614;54.356;10.100;2023-03-01T00:43:16;56.15;;;13.23;;
58842;SDS011;44614;54.356;10.100;2023-03-01T00:45:42;20.03;;;10.43;;
58842;SDS011;44614;54.356;10.100;2023-03-01T00:48:08;45.00;;;10.15;;
58842;SDS011;44614;54.356;10.100;2023-03-01T00:50:33;58.53;;;13.90;;
58842;SDS011;44614;54.356;10.100;2023-03-01T00:52:59;59.00;;;14.00;;
58842;SDS011;44614;54.356;10.100;2023-03-01T00:55:24;17.85;;;8.30;;
58842;SDS011;44614;54.356;10.100;2023-03-01T00:57:50;24.73;;;9.63;;
58842;SDS011;44614;54.356;10.100;2023-03-01T01:00:16;30.52;;;10.38;;
58842;SDS011;44614;54.356;10.100;2023-03-01T01:02:42;19.33;;;8.70;;
58842;SDS011;44614;54.356;10.100;2023-03-01T01:05:07;17.13;;;8.00;;
58842;SDS011;44614;54.356;10.100;2023-03-01T01:07:33;20.38;;;7.28;;
58842;SDS011;44614;54.356;10.100;2023-03-01T01:09:58;26.50;;;8.55;;
58842;SDS011;44614;54.356;10.100;2023-03-01T01:12:24;19.33;;;8.77;;
58842;SDS011;44614;54.356;10.100;2023-03-01T01:14:49;20.10;;;7.77;;
58842;SDS011;44614;54.356;10.100;2023-03-01T01:17:15;18.15;;;7.95;;
58842;SDS011;44614;54.356;10.100;2023-03-01T01:19:40;22.60;;;8.23;;
58842;SDS011;44614;54.356;10.100;2023-03-01T01:22:05;29.53;;;8.17;;
58842;SDS011;44614;54.356;10.100;2023-03-01T01:24:30;29.63;;;8.83;;
58842;SDS011;44614;54.356;10.100;2023-03-01T01:26:56;20.65;;;8.73;;
58842;SDS011;44614;54.356;10.100;2023-03-01T01:29:21;17.15;;;7.88;;
58842;SDS011;44614;54.356;10.100;2023-03-01T01:31:47;14.52;;;7.35;;
58842;SDS011;44614;54.356;10.100;2023-03-01T01:34:17;14.18;;;6.72;;
58842;SDS011;44614;54.356;10.100;2023-03-01T01:36:46;10.85;;;5.82;;
58842;SDS011;44614;54.356;10.100;2023-03-01T01:39:14;15.93;;;7.03;;
58842;SDS011;44614;54.356;10.100;2023-03-01T01:41:40;35.38;;;11.48;;
58842;SDS011;44614;54.356;10.100;2023-03-01T01:46:46;24.08;;;10.13;;
58842;SDS011;44614;54.356;10.100;2023-03-01T01:54:31;14.30;;;8.18;;
58842;SDS011;44614;54.356;10.100;2023-03-01T01:57:06;18.70;;;7.50;;
58842;SDS011;44614;54.356;10.100;2023-03-01T01:59:35;22.30;;;9.27;;
58842;SDS011;44614;54.356;10.100;2023-03-01T02:02:03;50.95;;;12.77;;
58842;SDS011;44614;54.356;10.100;2023-03-01T02:04:31;19.15;;;7.95;;
58842;SDS011;44614;54.356;10.100;2023-03-01T02:07:19;19.73;;;7.95;;
58842;SDS011;44614;54.356;10.100;2023-03-01T02:09:46;30.17;;;10.27;;
58842;SDS011;44614;54.356;10.100;2023-03-01T02:12:14;64.10;;;14.07;;
58842;SDS011;44614;54.356;10.100;2023-03-01T02:14:42;81.18;;;14.75;;
58842;SDS011;44614;54.356;10.100;2023-03-01T02:17:07;43.97;;;12.23;;
58842;SDS011;44614;54.356;10.100;2023-03-01T02:19:48;34.40;;;9.77;;
58842;SDS011;44614;54.356;10.100;2023-03-01T02:22:27;17.73;;;8.63;;
58842;SDS011;44614;54.356;10.100;2023-03-01T02:27:59;44.33;;;10.43;;
58842;SDS011;44614;54.356;10.100;2023-03-01T02:30:27;28.35;;;12.20;;
58842;SDS011;44614;54.356;10.100;2023-03-01T02:32:54;49.17;;;12.07;;
58842;SDS011;44614;54.356;10.100;2023-03-01T02:35:27;48.08;;;12.43;;
58842;SDS011;44614;54.356;10.100;2023-03-01T02:37:56;52.47;;;10.75;;
58842;SDS011;44614;54.356;10.100;2023-03-01T02:40:25;18.95;;;7.35;;
58842;SDS011;44614;54.356;10.100;2023-03-01T02:42:54;44.97;;;13.60;;
58842;SDS011;44614;54.356;10.100;2023-03-01T02:45:22;27.67;;;8.30;;
58842;SDS011;44614;54.356;10.100;2023-03-01T02:47:49;49.10;;;13.90;;
58842;SDS011;44614;54.356;10.100;2023-03-01T02:53:04;61.30;;;10.88;;
58842;SDS011;44614;54.356;10.100;2023-03-01T02:55:40;50.08;;;12.00;;
58842;SDS011;44614;54.356;10.100;2023-03-01T02:58:05;30.15;;;11.43;;
58842;SDS011;44614;54.356;10.100;2023-03-01T03:00:32;42.47;;;10.48;;
58842;SDS011;44614;54.356;10.100;2023-03-01T03:03:04;24.27;;;8.30;;
58842;SDS011;44614;54.356;10.100;2023-03-01T03:05:30;17.20;;;7.15;;
58842;SDS011;44614;54.356;10.100;2023-03-01T03:07:56;18.10;;;9.10;;
58842;SDS011;44614;54.356;10.100;2023-03-01T03:10:25;29.23;;;8.93;;
58842;SDS011;44614;54.356;10.100;2023-03-01T03:12:55;81.40;;;15.15;;
58842;SDS011;44614;54.356;10.100;2023-03-01T03:15:22;24.90;;;7.55;;
58842;SDS011;44614;54.356;10.100;2023-03-01T03:17:48;68.90;;;14.60;;
58842;SDS011;44614;54.356;10.100;2023-03-01T03:20:16;107.13;;;16.70;;
58842;SDS011;44614;54.356;10.100;2023-03-01T03:22:46;44.65;;;10.15;;
58842;SDS011;44614;54.356;10.100;2023-03-01T03:25:16;23.15;;;7.13;;
58842;SDS011;44614;54.356;10.100;2023-03-01T03:27:43;50.08;;;10.23;;
58842;SDS011;44614;54.356;10.100;2023-03-01T03:30:12;15.07;;;7.05;;
58842;SDS011;44614;54.356;10.100;2023-03-01T03:32:39;66.80;;;14.45;;
58842;SDS011;44614;54.356;10.100;2023-03-01T03:35:06;22.40;;;8.93;;
58842;SDS011;44614;54.356;10.100;2023-03-01T03:37:36;55.08;;;10.43;;
58842;SDS011;44614;54.356;10.100;2023-03-01T03:40:24;11.63;;;5.80;;
58842;SDS011;44614;54.356;10.100;2023-03-01T03:42:51;29.70;;;9.27;;
58842;SDS011;44614;54.356;10.100;2023-03-01T03:45:17;12.93;;;6.47;;
58842;SDS011;44614;54.356;10.100;2023-03-01T03:47:42;57.08;;;12.23;;
58842;SDS011;44614;54.356;10.100;2023-03-01T03:50:13;11.45;;;5.80;;
58842;SDS011;44614;54.356;10.100;2023-03-01T03:52:40;100.90;;;17.77;;
58842;SDS011;44614;54.356;10.100;2023-03-01T03:55:06;61.78;;;12.40;;
58842;SDS011;44614;54.356;10.100;2023-03-01T03:57:39;14.80;;;7.15;;
58842;SDS011;44614;54.356;10.100;2023-03-01T04:00:06;62.33;;;12.48;;
58842;SDS011;44614;54.356;10.100;2023-03-01T04:02:42;31.58;;;10.07;;
58842;SDS011;44614;54.356;10.100;2023-03-01T04:05:08;27.38;;;8.00;;
58842;SDS011;44614;54.356;10.100;2023-03-01T04:07:35;33.28;;;9.52;;
58842;SDS011;44614;54.356;10.100;2023-03-01T04:10:04;17.83;;;6.90;;
58842;SDS011;44614;54.356;10.100;2023-03-01T04:12:31;42.17;;;9.68;;
58842;SDS011;44614;54.356;10.100;2023-03-01T04:17:24;57.63;;;9.87;;
58842;SDS011;44614;54.356;10.100;2023-03-01T04:19:49;40.30;;;10.43;;
58842;SDS011;44614;54.356;10.100;2023-03-01T04:22:15;18.83;;;7.00;;
58842;SDS011;44614;54.356;10.100;2023-03-01T04:24:42;43.05;;;10.98;;
58842;SDS011;44614;54.356;10.100;2023-03-01T04:27:08;14.20;;;6.70;;
58842;SDS011;44614;54.356;10.100;2023-03-01T04:29:33;57.53;;;10.93;;
58842;SDS011;44614;54.356;10.100;2023-03-01T04:31:59;37.77;;;9.63;;
58842;SDS011;44614;54.356;10.100;2023-03-01T04:34:24;22.53;;;7.30;;
58842;SDS011;44614;54.356;10.100;2023-03-01T04:39:17;17.10;;;7.05;;
58842;SDS011;44614;54.356;10.100;2023-03-01T04:41:42;58.70;;;14.10;;
58842;SDS011;44614;54.356;10.100;2023-03-01T04:44:10;75.93;;;11.27;;
58842;SDS011;44614;54.356;10.100;2023-03-01T04:46:36;28.63;;;7.00;;
58842;SDS011;44614;54.356;10.100;2023-03-01T04:49:02;64.63;;;10.60;;
58842;SDS011;44614;54.356;10.100;2023-03-01T04:51:28;29.00;;;7.65;;
58842;SDS011;44614;54.356;10.100;2023-03-01T04:53:54;19.33;;;7.40;;
58842;SDS011;44614;54.356;10.100;2023-03-01T04:56:19;77.20;;;15.27;;
58842;SDS011;44614;54.356;10.100;2023-03-01T04:58:44;35.35;;;9.70;;
58842;SDS011;44614;54.356;10.100;2023-03-01T05:01:11;17.92;;;6.85;;
58842;SDS011;44614;54.356;10.100;2023-03-01T05:03:45;49.65;;;9.40;;
58842;SDS011;44614;54.356;10.100;2023-03-01T05:06:12;14.85;;;5.85;;
58842;SDS011;44614;54.356;10.100;2023-03-01T05:08:38;32.83;;;8.32;;
58842;SDS011;44614;54.356;10.100;2023-03-01T05:11:04;11.23;;;4.87;;
58842;SDS011;44614;54.356;10.100;2023-03-01T05:13:30;62.75;;;7.57;;
58842;SDS011;44614;54.356;10.100;2023-03-01T05:15:57;13.52;;;6.50;;
58842;SDS011;44614;54.356;10.100;2023-03-01T05:18:24;28.55;;;7.20;;
58842;SDS011;44614;54.356;10.100;2023-03-01T05:21:01;41.10;;;12.45;;
58842;SDS011;44614;54.356;10.100;2023-03-01T05:23:37;17.20;;;5.97;;
58842;SDS011;44614;54.356;10.100;2023-03-01T05:26:02;30.52;;;8.68;;
58842;SDS011;44614;54.356;10.100;2023-03-01T05:28:29;11.45;;;4.65;;
58842;SDS011;44614;54.356;10.100;2023-03-01T05:30:55;11.48;;;5.32;;
58842;SDS011;44614;54.356;10.100;2023-03-01T05:33:22;12.38;;;5.50;;
58842;SDS011;44614;54.356;10.100;2023-03-01T05:35:49;40.33;;;9.83;;
58842;SDS011;44614;54.356;10.100;2023-03-01T05:38:15;11.70;;;4.95;;
58842;SDS011;44614;54.356;10.100;2023-03-01T05:40:42;10.25;;;5.28;;
58842;SDS011;44614;54.356;10.100;2023-03-01T05:45:35;15.32;;;6.18;;
58842;SDS011;44614;54.356;10.100;2023-03-01T05:48:02;33.83;;;8.38;;
58842;SDS011;44614;54.356;10.100;2023-03-01T05:50:28;36.40;;;9.50;;
58842;SDS011;44614;54.356;10.100;2023-03-01T05:55:28;11.65;;;5.97;;
58842;SDS011;44614;54.356;10.100;2023-03-01T05:57:54;21.85;;;6.20;;
58842;SDS011;44614;54.356;10.100;2023-03-01T06:00:21;54.63;;;8.85;;
58842;SDS011;44614;54.356;10.100;2023-03-01T06:02:50;17.05;;;6.63;;
58842;SDS011;44614;54.356;10.100;2023-03-01T06:05:17;28.05;;;7.13;;
58842;SDS011;44614;54.356;10.100;2023-03-01T06:07:42;21.10;;;6.05;;
58842;SDS011;44614;54.356;10.100;2023-03-01T06:10:09;12.73;;;5.13;;
58842;SDS011;44614;54.356;10.100;2023-03-01T06:12:37;10.68;;;5.13;;
58842;SDS011;44614;54.356;10.100;2023-03-01T06:15:03;31.52;;;6.80;;
58842;SDS011;44614;54.356;10.100;2023-03-01T06:19:56;14.35;;;4.38;;
58842;SDS011;44614;54.356;10.100;2023-03-01T06:22:22;12.00;;;5.25;;
58842;SDS011;44614;54.356;10.100;2023-03-01T06:24:47;14.27;;;6.00;;
58842;SDS011;44614;54.356;10.100;2023-03-01T06:27:12;43.38;;;8.60;;
58842;SDS011;44614;54.356;10.100;2023-03-01T06:29:38;63.50;;;9.68;;
58842;SDS011;44614;54.356;10.100;2023-03-01T06:32:03;13.03;;;5.77;;
58842;SDS011;44614;54.356;10.100;2023-03-01T06:34:29;15.45;;;5.55;;
58842;SDS011;44614;54.356;10.100;2023-03-01T06:36:54;28.85;;;7.68;;
58842;SDS011;44614;54.356;10.100;2023-03-01T06:39:19;36.35;;;9.80;;
58842;SDS011;44614;54.356;10.100;2023-03-01T06:41:45;14.05;;;6.00;;
58842;SDS011;44614;54.356;10.100;2023-03-01T06:44:10;27.13;;;5.60;;
58842;SDS011;44614;54.356;10.100;2023-03-01T06:46:36;26.70;;;7.97;;
58842;SDS011;44614;54.356;10.100;2023-03-01T06:49:01;14.02;;;4.97;;
58842;SDS011;44614;54.356;10.100;2023-03-01T06:51:29;18.65;;;6.05;;
58842;SDS011;44614;54.356;10.100;2023-03-01T06:53:55;11.23;;;4.95;;
58842;SDS011;44614;54.356;10.100;2023-03-01T06:56:20;39.88;;;9.50;;
58842;SDS011;44614;54.356;10.100;2023-03-01T06:58:45;56.67;;;8.68;;
58842;SDS011;44614;54.356;10.100;2023-03-01T07:01:11;26.73;;;5.90;;
58842;SDS011;44614;54.356;10.100;2023-03-01T07:03:36;13.05;;;4.95;;
58842;SDS011;44614;54.356;10.100;2023-03-01T07:06:01;38.10;;;7.47;;
58842;SDS011;44614;54.356;10.100;2023-03-01T07:08:27;13.15;;;5.30;;
58842;SDS011;44614;54.356;10.100;2023-03-01T07:10:56;28.13;;;6.67;;
58842;SDS011;44614;54.356;10.100;2023-03-01T07:13:22;44.03;;;11.55;;
58842;SDS011;44614;54.356;10.100;2023-03-01T07:15:47;15.40;;;4.77;;
58842;SDS011;44614;54.356;10.100;2023-03-01T07:18:12;16.13;;;5.63;;
58842;SDS011;44614;54.356;10.100;2023-03-01T07:20:37;18.27;;;5.50;;
58842;SDS011;44614;54.356;10.100;2023-03-01T07:23:03;16.10;;;4.97;;
58842;SDS011;44614;54.356;10.100;2023-03-01T07:25:31;44.60;;;8.05;;
58842;SDS011;44614;54.356;10.100;2023-03-01T07:27:57;46.03;;;10.25;;
58842;SDS011;44614;54.356;10.100;2023-03-01T07:30:22;55.63;;;7.70;;
58842;SDS011;44614;54.356;10.100;2023-03-01T07:32:51;27.05;;;5.43;;
58842;SDS011;44614;54.356;10.100;2023-03-01T07:35:16;30.83;;;7.65;;
58842;SDS011;44614;54.356;10.100;2023-03-01T07:37:42;79.50;;;10.57;;
58842;SDS011;44614;54.356;10.100;2023-03-01T07:40:08;42.55;;;9.18;;
58842;SDS011;44614;54.356;10.100;2023-03-01T07:42:34;126.03;;;16.43;;
58842;SDS011;44614;54.356;10.100;2023-03-01T07:45:00;14.23;;;5.05;;
58842;SDS011;44614;54.356;10.100;2023-03-01T07:47:25;61.00;;;13.05;;
58842;SDS011;44614;54.356;10.100;2023-03-01T07:49:50;13.13;;;5.78;;
58842;SDS011;44614;54.356;10.100;2023-03-01T07:52:16;49.33;;;11.93;;
58842;SDS011;44614;54.356;10.100;2023-03-01T07:54:44;17.77;;;6.43;;
58842;SDS011;44614;54.356;10.100;2023-03-01T07:57:10;13.40;;;7.82;;
58842;SDS011;44614;54.356;10.100;2023-03-01T07:59:35;22.95;;;6.82;;
58842;SDS011;44614;54.356;10.100;2023-03-01T08:02:01;9.27;;;4.50;;
58842;SDS011;44614;54.356;10.100;2023-03-01T08:04:26;11.65;;;4.57;;
58842;SDS011;44614;54.356;10.100;2023-03-01T08:06:52;24.23;;;5.88;;
58842;SDS011;44614;54.356;10.100;2023-03-01T08:09:18;30.50;;;6.53;;
58842;SDS011;44614;54.356;10.100;2023-03-01T08:11:43;13.63;;;5.90;;
58842;SDS011;44614;54.356;10.100;2023-03-01T08:14:08;25.00;;;6.82;;
58842;SDS011;44614;54.356;10.100;2023-03-01T08:16:35;12.43;;;4.80;;
58842;SDS011;44614;54.356;10.100;2023-03-01T08:19:10;9.02;;;4.53;;
58842;SDS011;44614;54.356;10.100;2023-03-01T08:21:37;17.50;;;6.45;;
58842;SDS011;44614;54.356;10.100;2023-03-01T08:24:03;18.63;;;6.50;;
58842;SDS011;44614;54.356;10.100;2023-03-01T08:26:29;13.23;;;4.53;;
58842;SDS011;44614;54.356;10.100;2023-03-01T08:28:55;10.45;;;4.85;;
58842;SDS011;44614;54.356;10.100;2023-03-01T08:31:28;18.50;;;6.20;;
58842;SDS011;44614;54.356;10.100;2023-03-01T08:33:57;13.55;;;4.55;;
58842;SDS011;44614;54.356;10.100;2023-03-01T08:36:26;9.80;;;4.10;;
58842;SDS011;44614;54.356;10.100;2023-03-01T08:38:54;9.88;;;4.50;;
58842;SDS011;44614;54.356;10.100;2023-03-01T08:41:20;10.50;;;4.97;;
58842;SDS011;44614;54.356;10.100;2023-03-01T08:43:45;9.02;;;4.60;;
58842;SDS011;44614;54.356;10.100;2023-03-01T08:46:11;11.70;;;5.55;;
58842;SDS011;44614;54.356;10.100;2023-03-01T08:48:36;13.57;;;4.97;;
58842;SDS011;44614;54.356;10.100;2023-03-01T08:53:38;11.05;;;4.78;;
58842;SDS011;44614;54.356;10.100;2023-03-01T08:56:04;12.45;;;5.93;;
58842;SDS011;44614;54.356;10.100;2023-03-01T08:58:30;10.48;;;5.47;;
58842;SDS011;44614;54.356;10.100;2023-03-01T09:00:55;11.10;;;5.50;;
58842;SDS011;44614;54.356;10.100;2023-03-01T09:03:21;15.40;;;5.60;;
58842;SDS011;44614;54.356;10.100;2023-03-01T09:05:47;6.85;;;4.53;;
58842;SDS011;44614;54.356;10.100;2023-03-01T09:08:15;10.82;;;4.95;;
58842;SDS011;44614;54.356;10.100;2023-03-01T09:10:41;12.35;;;5.05;;
58842;SDS011;44614;54.356;10.100;2023-03-01T09:13:06;12.13;;;5.40;;
58842;SDS011;44614;54.356;10.100;2023-03-01T09:15:31;12.93;;;5.47;;
58842;SDS011;44614;54.356;10.100;2023-03-01T09:17:58;15.70;;;6.27;;
58842;SDS011;44614;54.356;10.100;2023-03-01T09:20:24;13.15;;;5.15;;
58842;SDS011;44614;54.356;10.100;2023-03-01T09:22:49;32.60;;;6.28;;
58842;SDS011;44614;54.356;10.100;2023-03-01T09:25:14;19.85;;;6.28;;
58842;SDS011;44614;54.356;10.100;2023-03-01T09:27:40;11.45;;;4.55;;
58842;SDS011;44614;54.356;10.100;2023-03-01T09:30:05;15.75;;;6.22;;
58842;SDS011;44614;54.356;10.100;2023-03-01T09:32:31;13.20;;;5.27;;
58842;SDS011;44614;54.356;10.100;2023-03-01T09:34:57;13.35;;;5.25;;
58842;SDS011;44614;54.356;10.100;2023-03-01T09:37:32;9.77;;;4.35;;
58842;SDS011;44614;54.356;10.100;2023-03-01T09:39:58;10.48;;;4.50;;
58842;SDS011;44614;54.356;10.100;2023-03-01T09:42:24;9.13;;;4.95;;
58842;SDS011;44614;54.356;10.100;2023-03-01T09:44:58;13.32;;;5.22;;
58842;SDS011;44614;54.356;10.100;2023-03-01T09:47:27;8.52;;;4.80;;
58842;SDS011;44614;54.356;10.100;2023-03-01T09:52:43;12.48;;;4.75;;
58842;SDS011;44614;54.356;10.100;2023-03-01T09:55:14;9.25;;;4.20;;
58842;SDS011;44614;54.356;10.100;2023-03-01T10:02:44;8.23;;;4.17;;
58842;SDS011;44614;54.356;10.100;2023-03-01T10:05:21;8.68;;;4.47;;
58842;SDS011;44614;54.356;10.100;2023-03-01T10:10:34;10.83;;;4.03;;
58842;SDS011;44614;54.356;10.100;2023-03-01T10:13:04;9.73;;;4.57;;
58842;SDS011;44614;54.356;10.100;2023-03-01T10:15:43;7.93;;;3.80;;
58842;SDS011;44614;54.356;10.100;2023-03-01T10:18:15;9.70;;;4.57;;
58842;SDS011;44614;54.356;10.100;2023-03-01T10:23:26;9.63;;;4.65;;
58842;SDS011;44614;54.356;10.100;2023-03-01T10:28:46;14.40;;;5.38;;
58842;SDS011;44614;54.356;10.100;2023-03-01T10:31:18;11.13;;;4.40;;
58842;SDS011;44614;54.356;10.100;2023-03-01T10:33:45;10.23;;;4.20;;
58842;SDS011;44614;54.356;10.100;2023-03-01T10:36:12;7.03;;;4.00;;
58842;SDS011;44614;54.356;10.100;2023-03-01T10:38:51;8.85;;;4.00;;
58842;SDS011;44614;54.356;10.100;2023-03-01T10:41:19;7.07;;;3.10;;
58842;SDS011;44614;54.356;10.100;2023-03-01T10:43:46;6.30;;;2.97;;
58842;SDS011;44614;54.356;10.100;2023-03-01T10:49:05;8.32;;;4.10;;
58842;SDS011;44614;54.356;10.100;2023-03-01T10:51:45;11.50;;;5.03;;
58842;SDS011;44614;54.356;10.100;2023-03-01T10:54:20;10.52;;;4.57;;
58842;SDS011;44614;54.356;10.100;2023-03-01T10:56:57;6.80;;;2.58;;
58842;SDS011;44614;54.356;10.100;2023-03-01T10:59:35;8.85;;;3.50;;
58842;SDS011;44614;54.356;10.100;2023-03-01T11:05:00;11.27;;;4.75;;
58842;SDS011;44614;54.356;10.100;2023-03-01T11:07:50;6.07;;;3.25;;
58842;SDS011;44614;54.356;10.100;2023-03-01T11:10:19;7.72;;;3.42;;
58842;SDS011;44614;54.356;10.100;2023-03-01T11:12:53;9.48;;;4.05;;
58842;SDS011;44614;54.356;10.100;2023-03-01T11:15:29;9.50;;;4.05;;
58842;SDS011;44614;54.356;10.100;2023-03-01T11:17:55;7.90;;;3.15;;
58842;SDS011;44614;54.356;10.100;2023-03-01T11:20:31;6.95;;;3.40;;
58842;SDS011;44614;54.356;10.100;2023-03-01T11:23:01;8.50;;;3.92;;
58842;SDS011;44614;54.356;10.100;2023-03-01T11:25:37;6.97;;;3.38;;
58842;SDS011;44614;54.356;10.100;2023-03-01T11:28:07;8.95;;;3.13;;
58842;SDS011;44614;54.356;10.100;2023-03-01T11:30:40;5.03;;;3.00;;
58842;SDS011;44614;54.356;10.100;2023-03-01T11:38:30;5.25;;;2.60;;
58842;SDS011;44614;54.356;10.100;2023-03-01T11:41:00;5.85;;;2.78;;
58842;SDS011;44614;54.356;10.100;2023-03-01T11:43:39;8.95;;;4.25;;
58842;SDS011;44614;54.356;10.100;2023-03-01T11:52:02;8.38;;;3.17;;
58842;SDS011;44614;54.356;10.100;2023-03-01T11:54:41;6.47;;;2.53;;
58842;SDS011;44614;54.356;10.100;2023-03-01T12:08:20;6.85;;;2.90;;
58842;SDS011;44614;54.356;10.100;2023-03-01T12:19:41;10.10;;;5.22;;
58842;SDS011;44614;54.356;10.100;2023-03-01T12:25:21;7.38;;;3.45;;
58842;SDS011;44614;54.356;10.100;2023-03-01T12:45:16;7.13;;;3.53;;
58842;SDS011;44614;54.356;10.100;2023-03-01T12:50:56;10.48;;;3.92;;
58842;SDS011;44614;54.356;10.100;2023-03-01T12:53:34;9.93;;;4.32;;
58842;SDS011;44614;54.356;10.100;2023-03-01T12:56:05;10.13;;;4.63;;
58842;SDS011;44614;54.356;10.100;2023-03-01T12:58:34;6.50;;;2.92;;
58842;SDS011;44614;54.356;10.100;2023-03-01T13:09:29;6.03;;;2.78;;
58842;SDS011;44614;54.356;10.100;2023-03-01T13:12:01;8.10;;;3.60;;
58842;SDS011;44614;54.356;10.100;2023-03-01T13:14:34;7.60;;;3.25;;
58842;SDS011;44614;54.356;10.100;2023-03-01T13:17:01;9.35;;;4.00;;
58842;SDS011;44614;54.356;10.100;2023-03-01T13:19:27;8.32;;;4.05;;
58842;SDS011;44614;54.356;10.100;2023-03-01T13:21:55;8.23;;;4.88;;
58842;SDS011;44614;54.356;10.100;2023-03-01T13:24:24;6.22;;;3.53;;
58842;SDS011;44614;54.356;10.100;2023-03-01T13:29:30;7.07;;;3.80;;
58842;SDS011;44614;54.356;10.100;2023-03-01T13:32:21;7.45;;;3.20;;
58842;SDS011;44614;54.356;10.100;2023-03-01T13:34:54;7.97;;;3.90;;
58842;SDS011;44614;54.356;10.100;2023-03-01T13:37:23;8.02;;;4.25;;
58842;SDS011;44614;54.356;10.100;2023-03-01T13:39:54;10.27;;;5.13;;
58842;SDS011;44614;54.356;10.100;2023-03-01T13:42:36;8.20;;;3.75;;
58842;SDS011;44614;54.356;10.100;2023-03-01T13:45:14;9.10;;;3.67;;
58842;SDS011;44614;54.356;10.100;2023-03-01T13:47:43;8.43;;;4.25;;
58842;SDS011;44614;54.356;10.100;2023-03-01T13:50:16;10.60;;;5.60;;
58842;SDS011;44614;54.356;10.100;2023-03-01T13:52:48;15.50;;;6.30;;
58842;SDS011;44614;54.356;10.100;2023-03-01T13:55:47;13.65;;;6.18;;
58842;SDS011;44614;54.356;10.100;2023-03-01T13:58:18;17.15;;;6.63;;
58842;SDS011;44614;54.356;10.100;2023-03-01T14:03:21;12.48;;;5.20;;
58842;SDS011;44614;54.356;10.100;2023-03-01T14:06:00;16.50;;;6.43;;
58842;SDS011;44614;54.356;10.100;2023-03-01T14:08:27;10.50;;;4.75;;
58842;SDS011;44614;54.356;10.100;2023-03-01T14:13:48;11.40;;;4.70;;
58842;SDS011;44614;54.356;10.100;2023-03-01T14:19:41;11.68;;;5.10;;
58842;SDS011;44614;54.356;10.100;2023-03-01T14:22:23;12.27;;;5.63;;
58842;SDS011;44614;54.356;10.100;2023-03-01T14:24:54;12.38;;;5.22;;
58842;SDS011;44614;54.356;10.100;2023-03-01T14:27:21;13.57;;;4.97;;
58842;SDS011;44614;54.356;10.100;2023-03-01T14:29:57;13.98;;;5.68;;
58842;SDS011;44614;54.356;10.100;2023-03-01T14:32:27;12.07;;;5.90;;
58842;SDS011;44614;54.356;10.100;2023-03-01T14:34:54;13.23;;;6.15;;
58842;SDS011;44614;54.356;10.100;2023-03-01T14:37:23;12.15;;;5.32;;
58842;SDS011;44614;54.356;10.100;2023-03-01T14:39:54;15.38;;;6.03;;
58842;SDS011;44614;54.356;10.100;2023-03-01T14:42:21;11.80;;;5.35;;
58842;SDS011;44614;54.356;10.100;2023-03-01T14:44:49;15.20;;;5.65;;
58842;SDS011;44614;54.356;10.100;2023-03-01T14:47:34;12.48;;;5.70;;
58842;SDS011;44614;54.356;10.100;2023-03-01T14:50:05;14.07;;;6.18;;
58842;SDS011;44614;54.356;10.100;2023-03-01T14:52:39;13.30;;;6.28;;
58842;SDS011;44614;54.356;10.100;2023-03-01T14:55:13;14.50;;;6.13;;
58842;SDS011;44614;54.356;10.100;2023-03-01T14:57:43;12.60;;;5.90;;
58842;SDS011;44614;54.356;10.100;2023-03-01T15:00:10;13.40;;;5.25;;
58842;SDS011;44614;54.356;10.100;2023-03-01T15:02:43;14.85;;;6.15;;
58842;SDS011;44614;54.356;10.100;2023-03-01T15:07:40;17.25;;;7.18;;
58842;SDS011;44614;54.356;10.100;2023-03-01T15:13:12;17.63;;;6.03;;
58842;SDS011;44614;54.356;10.100;2023-03-01T15:15:46;19.58;;;6.72;;
58842;SDS011;44614;54.356;10.100;2023-03-01T15:18:28;14.88;;;6.30;;
58842;SDS011;44614;54.356;10.100;2023-03-01T15:20:54;18.73;;;7.30;;
58842;SDS011;44614;54.356;10.100;2023-03-01T15:25:48;17.80;;;7.28;;
58842;SDS011;44614;54.356;10.100;2023-03-01T15:28:22;10.05;;;5.63;;
58842;SDS011;44614;54.356;10.100;2023-03-01T15:30:57;9.55;;;4.93;;
58842;SDS011;44614;54.356;10.100;2023-03-01T15:35:59;17.13;;;7.68;;
58842;SDS011;44614;54.356;10.100;2023-03-01T15:40:53;12.52;;;5.45;;
58842;SDS011;44614;54.356;10.100;2023-03-01T15:46:12;14.93;;;6.22;;
58842;SDS011;44614;54.356;10.100;2023-03-01T15:48:47;14.93;;;6.57;;
58842;SDS011;44614;54.356;10.100;2023-03-01T15:51:17;15.07;;;6.70;;
58842;SDS011;44614;54.356;10.100;2023-03-01T15:53:48;41.13;;;9.25;;
58842;SDS011;44614;54.356;10.100;2023-03-01T15:56:16;13.38;;;5.43;;
58842;SDS011;44614;54.356;10.100;2023-03-01T15:58:41;13.93;;;6.50;;
58842;SDS011;44614;54.356;10.100;2023-03-01T16:01:13;12.43;;;6.93;;
58842;SDS011;44614;54.356;10.100;2023-03-01T16:03:40;18.20;;;7.40;;
58842;SDS011;44614;54.356;10.100;2023-03-01T16:06:05;11.32;;;5.82;;
58842;SDS011;44614;54.356;10.100;2023-03-01T16:08:33;11.25;;;5.43;;
58842;SDS011;44614;54.356;10.100;2023-03-01T16:10:58;10.98;;;6.10;;
58842;SDS011;44614;54.356;10.100;2023-03-01T16:13:24;13.25;;;6.28;;
58842;SDS011;44614;54.356;10.100;2023-03-01T16:15:50;19.70;;;7.93;;
58842;SDS011;44614;54.356;10.100;2023-03-01T16:18:16;14.27;;;6.80;;
58842;SDS011;44614;54.356;10.100;2023-03-01T16:20:41;14.85;;;6.35;;
58842;SDS011;44614;54.356;10.100;2023-03-01T16:23:07;15.63;;;5.27;;
58842;SDS011;44614;54.356;10.100;2023-03-01T16:25:35;10.80;;;5.20;;
58842;SDS011;44614;54.356;10.100;2023-03-01T16:28:01;18.92;;;7.28;;
58842;SDS011;44614;54.356;10.100;2023-03-01T16:30:30;15.35;;;6.43;;
58842;SDS011;44614;54.356;10.100;2023-03-01T16:32:55;18.63;;;6.85;;
58842;SDS011;44614;54.356;10.100;2023-03-01T16:35:21;15.10;;;6.57;;
58842;SDS011;44614;54.356;10.100;2023-03-01T16:37:46;15.07;;;6.10;;
58842;SDS011;44614;54.356;10.100;2023-03-01T16:40:16;12.10;;;5.40;;
58842;SDS011;44614;54.356;10.100;2023-03-01T16:42:43;18.05;;;6.78;;
58842;SDS011;44614;54.356;10.100;2023-03-01T16:45:08;14.30;;;5.82;;
58842;SDS011;44614;54.356;10.100;2023-03-01T16:47:34;14.45;;;5.97;;
58842;SDS011;44614;54.356;10.100;2023-03-01T16:50:00;15.68;;;6.63;;